Terminal Aerodrome Forecast
Issued by NWS Denver/Boulder, CO

Home | Current Version | Previous Version | Text Only | Print | Product List | Glossary On
Versions: 1 2 3 4 5 6 7 8 9 10 11 12 13 14 15 16 17 18 19 20 21 22 23 24 25 26 27 28 29 30 31 32 33 34 35 36 37 38 39 40 41 42 43 44 45 46 47 48 49 50
000
FTUS45 KBOU 282340
TAFDEN
TAF
KDEN 282340Z 2900/3006 06007KT P6SM FEW090 SCT120 BKN200
     FM290200 21008KT P6SM SCT120 BKN200
     FM290800 25007KT P6SM SCT050 BKN080
     FM291000 02012G20KT P6SM VCSH SCT025 OVC050
      TEMPO 2912/2914 01012G22KT 3SM -SHSN SCT015 BKN025
     FM291400 01012G22KT 1SM -SN BR BKN006 OVC014
     FM291800 03011KT 3/4SM -SN BR OVC008
      TEMPO 2920/2924 1/2SM SN OVC004=

USA.gov is the U.S. government's official web portal to all federal, state and local government web resources and services.